^^
Station Historical Data
Daily Summary for January 1, 2018 Units:  Metric    English   Both
« Previous Day
Next Day »
Daily Weekly Monthly Yearly Custom
  High: Low: Average:
Temperature: -17.8 °C -18 °C -17.5 °C
Dew Point: -17.8 °C -18.8 °C -18.1 °C
Humidity: Humidity% 90% 92%
Wind Speed: 0km/h 0km/h 1.4km/h
Wind Gust: 0km/h - -
Wind- - SE
Pressure: 0 hPa 33467.2 hPa -
Precipitation: 116.84 mm    
Historical Graphs
 
 
Tabular Data for January 1, 2018
Time Temperature Dew Point Pressure Wind Wind Speed Wind Gust Humidity Rainfall Rate (Hourly) solar Conditions
-17.8 °C -17.8 °C 0 hPa Calm     Humidity% 0 mm SoftwareType W/m2 Conditions
00:01 -18 °C -18.7 °C 33900.6 hPa SE 4.2 km/h 18.2 km/h 91% 0 mm WeatherDisplay:10.37 W/m2 FEW
00:05 -18 °C -18.8 °C 33890.5 hPa SE 5.5 km/h 11.9 km/h 90% 0 mm WeatherDisplay:10.37 W/m2 FEW
00:08 -18 °C -18.8 °C 33890.5 hPa Calm   6 km/h 90% 0 mm WeatherDisplay:10.37 W/m2 FEW
00:11 -17.9 °C -18.8 °C 33890.5 hPa SE 5.5 km/h 9 km/h 90% 0 mm WeatherDisplay:10.37 W/m2 FEW
00:16 -17.9 °C -18.8 °C 33890.5 hPa Calm     90% 0 mm WeatherDisplay:10.37 W/m2 FEW
00:21 -17.9 °C -18.8 °C 33880.3 hPa ESE 3.7 km/h 17.9 km/h 90% 0 mm WeatherDisplay:10.37 W/m2 FEW
00:26 -17.9 °C -18.7 °C 33880.3 hPa Calm   9 km/h 91% 0 mm WeatherDisplay:10.37 W/m2 FEW
00:31 -18 °C -18.7 °C 33880.3 hPa ESE 1.6 km/h 9 km/h 91% 0 mm WeatherDisplay:10.37 W/m2 FEW
00:36 -18 °C -18.7 °C 33880.3 hPa South 0.3 km/h 15 km/h 91% 0 mm WeatherDisplay:10.37 W/m2 FEW
00:41 -18 °C -18.8 °C 33880.3 hPa Calm   9 km/h 90% 0 mm WeatherDisplay:10.37 W/m2 FEW
00:45 -18 °C -18.8 °C 33866.8 hPa SSE 8 km/h 26.9 km/h 90% 0 mm WeatherDisplay:10.37 W/m2 FEW
00:50 -18 °C -18.8 °C 33866.8 hPa Calm     90% 0 mm WeatherDisplay:10.37 W/m2 FEW
00:52 -18 °C -18.8 °C 33866.8 hPa Calm   7.7 km/h 90% 0 mm WeatherDisplay:10.37 W/m2 FEW
00:57 -18 °C -18.8 °C 33866.8 hPa Calm   9 km/h 90% 0 mm WeatherDisplay:10.37 W/m2 FEW
01:02 -18 °C -18.8 °C 33866.8 hPa SE 7.2 km/h 11.9 km/h 90% 0 mm WeatherDisplay:10.37 W/m2 FEW
01:04 -18 °C -18.8 °C 33866.8 hPa ESE 4.3 km/h 9 km/h 90% 0 mm WeatherDisplay:10.37 W/m2 FEW
01:09 -18 °C -18.8 °C 33866.8 hPa SE 3.1 km/h 10.3 km/h 90% 0 mm WeatherDisplay:10.37 W/m2 FEW
01:14 -18 °C -18.8 °C 33856.6 hPa SE 4.7 km/h 9 km/h 90% 0 mm WeatherDisplay:10.37 W/m2 FEW
01:19 -18 °C -18.8 °C 33856.6 hPa East 3.7 km/h 17.9 km/h 90% 0 mm WeatherDisplay:10.37 W/m2 FEW
01:24 -18 °C -18.8 °C 33856.6 hPa Calm   6 km/h 90% 0 mm WeatherDisplay:10.37 W/m2 FEW
01:29 -18 °C -18.8 °C 33856.6 hPa SE 0.8 km/h 5.1 km/h 90% 0 mm WeatherDisplay:10.37 W/m2 FEW
01:34 -18 °C -18.8 °C 33856.6 hPa Calm   6 km/h 90% 0 mm WeatherDisplay:10.37 W/m2 FEW
01:39 -18 °C -18.8 °C 33843.1 hPa ESE 0.8 km/h 6 km/h 90% 0 mm WeatherDisplay:10.37 W/m2 FEW
01:43 -18 °C -18.8 °C 33843.1 hPa East 1.8 km/h 15.6 km/h 90% 0 mm WeatherDisplay:10.37 W/m2 FEW
01:45 -17.9 °C -18.8 °C 33843.1 hPa ESE 6 km/h 9 km/h 90% 0 mm WeatherDisplay:10.37 W/m2 FEW
01:50 -17.9 °C -18.8 °C 33843.1 hPa SE 4.3 km/h 12.9 km/h 90% 0 mm WeatherDisplay:10.37 W/m2 FEW
01:53 -17.9 °C -18.8 °C 33832.9 hPa ESE 6.4 km/h 15 km/h 90% 0 mm WeatherDisplay:10.37 W/m2 FEW
01:58 -17.9 °C -18.8 °C 33832.9 hPa SE 3.4 km/h 9 km/h 90% 0 mm WeatherDisplay:10.37 W/m2 FEW
02:03 -17.9 °C -18.7 °C 33832.9 hPa Calm   6 km/h 90% 0 mm WeatherDisplay:10.37 W/m2 FEW
02:08 -17.9 °C -18.7 °C 33832.9 hPa East 0.5 km/h 9 km/h 90% 0 mm WeatherDisplay:10.37 W/m2 FEW
02:13 -17.9 °C -18.7 °C 33822.8 hPa ESE 10.3 km/h 20.9 km/h 90% 0 mm WeatherDisplay:10.37 W/m2 FEW
02:15 -17.9 °C -18.7 °C 33822.8 hPa South 6.4 km/h 15 km/h 90% 0 mm WeatherDisplay:10.37 W/m2 FEW
02:20 -17.9 °C -18.7 °C 33822.8 hPa SE 6.3 km/h 9 km/h 90% 0 mm WeatherDisplay:10.37 W/m2 FEW
02:25 -17.8 °C -18.6 °C 33822.8 hPa SE 8.5 km/h 10.3 km/h 91% 0 mm WeatherDisplay:10.37 W/m2 FEW
02:30 -17.8 °C -18.6 °C 33822.8 hPa SSE 6.9 km/h 17.9 km/h 90% 0 mm WeatherDisplay:10.37 W/m2 FEW
02:33 -17.8 °C -18.5 °C 33822.8 hPa East 5.5 km/h 11.9 km/h 91% 0 mm WeatherDisplay:10.37 W/m2 FEW
02:34 -17.8 °C -18.5 °C 33809.2 hPa SSE 6.9 km/h 9 km/h 91% 0 mm WeatherDisplay:10.37 W/m2 FEW
02:40 -17.8 °C -18.5 °C 33809.2 hPa ESE 7.6 km/h 15 km/h 91% 0 mm WeatherDisplay:10.37 W/m2 FEW
02:45 -17.7 °C -18.4 °C 33809.2 hPa East 10.6 km/h 28.5 km/h 91% 0 mm WeatherDisplay:10.37 W/m2 FEW
02:50 -17.7 °C -18.4 °C 33799.1 hPa East 8 km/h 15.6 km/h 91% 0 mm WeatherDisplay:10.37 W/m2 FEW
02:51 -17.7 °C -18.4 °C 33799.1 hPa ESE 10.6 km/h 15 km/h 91% 0 mm WeatherDisplay:10.37 W/m2 FEW
02:56 -17.7 °C -18.4 °C 33799.1 hPa SE 3.9 km/h 20.9 km/h 91% 0 mm WeatherDisplay:10.37 W/m2 FEW
02:57 -17.7 °C -18.4 °C 33799.1 hPa ESE 6 km/h 11.9 km/h 91% 0 mm WeatherDisplay:10.37 W/m2 FEW
03:03 -17.7 °C -18.4 °C 33799.1 hPa East 5.1 km/h 9 km/h 92% 0 mm WeatherDisplay:10.37 W/m2 FEW
03:08 -17.7 °C -18.4 °C 33799.1 hPa SE 5 km/h 11.9 km/h 92% 0 mm WeatherDisplay:10.37 W/m2 FEW
03:13 -17.7 °C -18.4 °C 33788.9 hPa ENE 3.7 km/h 11.9 km/h 92% 0 mm WeatherDisplay:10.37 W/m2 FEW
03:16 -17.7 °C -18.4 °C 33799.1 hPa East 8.5 km/h 17.9 km/h 92% 0 mm WeatherDisplay:10.37 W/m2 FEW
03:22 -17.7 °C -18.4 °C 33799.1 hPa Calm     92% 0 mm WeatherDisplay:10.37 W/m2 FEW
03:27 -17.7 °C -18.4 °C 33799.1 hPa Calm     92% 0 mm WeatherDisplay:10.37 W/m2 FEW
03:29 -17.7 °C -18.3 °C 33799.1 hPa SE 8.2 km/h 15 km/h 93% 0 mm WeatherDisplay:10.37 W/m2 FEW
03:34 -17.7 °C -18.3 °C 33799.1 hPa East 6.3 km/h 11.9 km/h 93% 0 mm WeatherDisplay:10.37 W/m2 FEW
03:36 -17.7 °C -18.3 °C 33799.1 hPa Calm   9 km/h 93% 0 mm WeatherDisplay:10.37 W/m2 FEW
03:42 -17.7 °C -18.3 °C 33799.1 hPa ESE 7.2 km/h 17.9 km/h 93% 0 mm WeatherDisplay:10.37 W/m2 FEW
03:44 -17.7 °C -18.3 °C 33799.1 hPa SE 1.8 km/h 9 km/h 93% 0 mm WeatherDisplay:10.37 W/m2 FEW
03:49 -17.7 °C -18.3 °C 33799.1 hPa Calm     93% 0 mm WeatherDisplay:10.37 W/m2 FEW
03:54 -17.8 °C -18.3 °C 33788.9 hPa SE 0.8 km/h 6 km/h 93% 0 mm WeatherDisplay:10.37 W/m2 FEW
03:55 -17.8 °C -18.3 °C 33788.9 hPa SE 0.5 km/h 5.1 km/h 93% 0 mm WeatherDisplay:10.37 W/m2 FEW
04:00 -17.8 °C -18.3 °C 33788.9 hPa SE 0.5 km/h 3.1 km/h 93% 7.62 mm WeatherDisplay:10.37 W/m2 RA
04:04 -17.8 °C -18.2 °C 33775.4 hPa Calm     94% 7.62 mm WeatherDisplay:10.37 W/m2 RA
04:09 -17.8 °C -18.2 °C 33775.4 hPa Calm   3.1 km/h 94% 12.7 mm WeatherDisplay:10.37 W/m2 RA
04:10 -17.8 °C -18.2 °C 33775.4 hPa ESE 0.5 km/h 2.6 km/h 94% 12.7 mm WeatherDisplay:10.37 W/m2 RA
04:15 -17.8 °C -18.2 °C 33765.2 hPa SE 0.8 km/h 6 km/h 94% 12.7 mm WeatherDisplay:10.37 W/m2 RA
04:21 -17.8 °C -18.2 °C 33765.2 hPa SE 1.8 km/h 9 km/h 94% 20.32 mm WeatherDisplay:10.37 W/m2 RA
04:26 -17.8 °C -18.2 °C 33765.2 hPa SE 8 km/h 23.3 km/h 94% 25.4 mm WeatherDisplay:10.37 W/m2 RA
04:31 -17.7 °C -18.2 °C 33765.2 hPa SE 6 km/h 15 km/h 94% 25.4 mm WeatherDisplay:10.37 W/m2 RA
04:33 -17.7 °C -18.2 °C 33751.6 hPa SE 13.2 km/h 23.8 km/h 94% 33.02 mm WeatherDisplay:10.37 W/m2 RA
04:39 -17.7 °C -18.2 °C 33751.6 hPa SE 0.8 km/h 6 km/h 94% 33.02 mm WeatherDisplay:10.37 W/m2 RA
04:44 -17.7 °C -18.2 °C 33751.6 hPa ESE 1.3 km/h 6 km/h 94% 38.1 mm WeatherDisplay:10.37 W/m2 RA
04:45 -17.7 °C -18.2 °C 33751.6 hPa SE 5.1 km/h 9 km/h 94% 38.1 mm WeatherDisplay:10.37 W/m2 RA
04:51 -17.7 °C -18.2 °C 33751.6 hPa SE 3.4 km/h 9 km/h 94% 38.1 mm WeatherDisplay:10.37 W/m2 RA
04:56 -17.7 °C -18.2 °C 33751.6 hPa ESE 5 km/h 9 km/h 94% 38.1 mm WeatherDisplay:10.37 W/m2 RA
04:58 -17.7 °C -18.2 °C 33751.6 hPa Calm   9 km/h 94% 38.1 mm WeatherDisplay:10.37 W/m2 RA
05:04 -17.7 °C -18.3 °C 33751.6 hPa ESE 0.3 km/h 3.1 km/h 93% 38.1 mm WeatherDisplay:10.37 W/m2 RA
05:09 -17.7 °C -18.3 °C 33751.6 hPa SE 6.8 km/h 11.9 km/h 93% 38.1 mm WeatherDisplay:10.37 W/m2 RA
05:14 -17.7 °C -18.3 °C 33751.6 hPa SE 5.1 km/h 9 km/h 93% 38.1 mm WeatherDisplay:10.37 W/m2 RA
05:15 -17.7 °C -18.3 °C 33751.6 hPa ESE 5.6 km/h 10.3 km/h 93% 38.1 mm WeatherDisplay:10.37 W/m2 RA
05:20 -17.7 °C -18.3 °C 33741.5 hPa SE 1.6 km/h 2.6 km/h 93% 33.02 mm WeatherDisplay:10.37 W/m2 RA
05:25 -17.7 °C -18.3 °C 33741.5 hPa Calm     93% 33.02 mm WeatherDisplay:10.37 W/m2 RA
05:26 -17.7 °C -18.3 °C 33741.5 hPa Calm     93% 33.02 mm WeatherDisplay:10.37 W/m2 RA
05:31 -17.7 °C -18.3 °C 33741.5 hPa SE 1 km/h 6 km/h 93% 33.02 mm WeatherDisplay:10.37 W/m2 RA
05:36 -17.7 °C -18.3 °C 33741.5 hPa SE 1.8 km/h 9 km/h 93% 25.4 mm WeatherDisplay:10.37 W/m2 FEW
05:41 -17.7 °C -18.3 °C 33741.5 hPa Calm     93% 25.4 mm WeatherDisplay:10.37 W/m2 RA
05:44 -17.7 °C -18.3 °C 33741.5 hPa SE 6.8 km/h 11.9 km/h 93% 25.4 mm WeatherDisplay:10.37 W/m2 RA
05:46 -17.7 °C -18.3 °C 33741.5 hPa SE 0.8 km/h 6 km/h 93% 25.4 mm WeatherDisplay:10.37 W/m2 RA
05:50 -17.7 °C -18.3 °C 33731.3 hPa Calm     93% 25.4 mm WeatherDisplay:10.37 W/m2 FEW
05:52 -17.7 °C -18.3 °C 33731.3 hPa Calm     93% 20.32 mm WeatherDisplay:10.37 W/m2 FEW
05:57 -17.7 °C -18.3 °C 33731.3 hPa Calm     93% 20.32 mm WeatherDisplay:10.37 W/m2 FEW
06:02 -17.7 °C -18.3 °C 33731.3 hPa Calm   3.1 km/h 93% 20.32 mm WeatherDisplay:10.37 W/m2 RA
06:05 -17.7 °C -18.3 °C 33717.8 hPa Calm     93% 20.32 mm WeatherDisplay:10.37 W/m2 RA
06:10 -17.7 °C -18.3 °C 33717.8 hPa Calm     93% 20.32 mm WeatherDisplay:10.37 W/m2 FEW
06:15 -17.7 °C -18.3 °C 33717.8 hPa Calm   6 km/h 93% 12.7 mm WeatherDisplay:10.37 W/m2 FEW
06:20 -17.7 °C -18.3 °C 33717.8 hPa Calm     93% 12.7 mm WeatherDisplay:10.37 W/m2 FEW
06:23 -17.7 °C -18.3 °C 33717.8 hPa Calm     93% 12.7 mm WeatherDisplay:10.37 W/m2 RA
06:28 -17.7 °C -18.3 °C 33717.8 hPa Calm     93% 12.7 mm WeatherDisplay:10.37 W/m2 RA
06:31 -17.7 °C -18.3 °C 33717.8 hPa Calm     93% 12.7 mm WeatherDisplay:10.37 W/m2 RA
06:36 -17.7 °C -18.3 °C 33707.6 hPa SE 5.1 km/h 9 km/h 93% 12.7 mm WeatherDisplay:10.37 W/m2 FEW
06:41 -17.7 °C -18.3 °C 33707.6 hPa Calm     93% 12.7 mm WeatherDisplay:10.37 W/m2 FEW
06:46 -17.7 °C -18.3 °C 33707.6 hPa Calm     93% 12.7 mm WeatherDisplay:10.37 W/m2 FEW
06:50 -17.7 °C -18.3 °C 33707.6 hPa Calm     93% 12.7 mm WeatherDisplay:10.37 W/m2 FEW
06:55 -17.7 °C -18.3 °C 33707.6 hPa Calm     93% 12.7 mm WeatherDisplay:10.37 W/m2 FEW
07:00 -17.7 °C -18.3 °C 33694.1 hPa SE 1.6 km/h 6 km/h 93% 7.62 mm WeatherDisplay:10.37 W/m2 FEW
07:05 -17.7 °C -18.3 °C 33707.6 hPa Calm     93% 7.62 mm WeatherDisplay:10.37 W/m2 FEW
07:07 -17.7 °C -18.3 °C 33707.6 hPa Calm     93% 7.62 mm WeatherDisplay:10.37 W/m2 FEW
07:12 -17.7 °C -18.2 °C 33707.6 hPa Calm   3.1 km/h 93% 7.62 mm WeatherDisplay:10.37 W/m2 FEW
07:17 -17.7 °C -18.2 °C 33694.1 hPa SE 0.3 km/h 9 km/h 93% 7.62 mm WeatherDisplay:10.37 W/m2 FEW
07:22 -17.7 °C -18.2 °C 33694.1 hPa Calm     93% 0 mm WeatherDisplay:10.37 W/m2 FEW
07:27 -17.7 °C -18.2 °C 33694.1 hPa SE 4.2 km/h 6 km/h 93% 0 mm WeatherDisplay:10.37 W/m2 FEW
07:32 -17.7 °C -18.2 °C 33694.1 hPa Calm     93% 0 mm WeatherDisplay:10.37 W/m2 FEW
07:37 -17.7 °C -18.2 °C 33694.1 hPa Calm     93% 0 mm WeatherDisplay:10.37 W/m2 FEW
07:42 -17.7 °C -18.2 °C 33694.1 hPa Calm   9 km/h 93% 0 mm WeatherDisplay:10.37 W/m2 FEW
07:43 -17.7 °C -18.2 °C 33694.1 hPa Calm     93% 0 mm WeatherDisplay:10.37 W/m2 FEW
07:48 -17.7 °C -18.2 °C 33683.9 hPa SE 2.3 km/h   93% 0 mm WeatherDisplay:10.37 W/m2 FEW
07:53 -17.6 °C -18.2 °C 33683.9 hPa Calm     93% 0 mm WeatherDisplay:10.37 W/m2 FEW
07:58 -17.6 °C -18.2 °C 33683.9 hPa SE 0.5 km/h   93% 0 mm WeatherDisplay:10.37 W/m2 FEW
08:02 -17.6 °C -18.2 °C 33683.9 hPa Calm     93% 0 mm WeatherDisplay:10.37 W/m2 FEW
08:07 -17.6 °C -18.2 °C 33683.9 hPa Calm     93% 0 mm WeatherDisplay:10.37 W/m2 FEW
08:09 -17.6 °C -18.2 °C 33683.9 hPa Calm     93% 0 mm WeatherDisplay:10.37 W/m2 FEW
08:10 -17.6 °C -18.2 °C 33683.9 hPa SSE 1.6 km/h 9 km/h 93% 0 mm WeatherDisplay:10.37 W/m2 FEW
08:15 -17.6 °C -18.2 °C 33683.9 hPa Calm     93% 0 mm WeatherDisplay:10.37 W/m2 FEW
08:20 -17.6 °C -18.2 °C 33683.9 hPa Calm     93% 0 mm WeatherDisplay:10.37 W/m2 FEW
08:25 -17.6 °C -18.2 °C 33683.9 hPa Calm     93% 0 mm WeatherDisplay:10.37 W/m2 FEW
08:30 -17.6 °C -18.2 °C 33683.9 hPa Calm     93% 0 mm WeatherDisplay:10.37 W/m2 FEW
08:35 -17.6 °C -18.2 °C 33683.9 hPa Calm     93% 0 mm WeatherDisplay:10.37 W/m2 FEW
08:37 -17.6 °C -18.2 °C 33683.9 hPa SSE 0.3 km/h 3.1 km/h 93% 0 mm WeatherDisplay:10.37 W/m2 FEW
08:42 -17.6 °C -18.1 °C 33683.9 hPa Calm     93% 0 mm WeatherDisplay:10.37 W/m2 FEW
08:47 -17.6 °C -18.1 °C 33683.9 hPa SSE 1.6 km/h 9 km/h 93% 0 mm WeatherDisplay:10.37 W/m2 FEW
08:52 -17.6 °C -18.1 °C 33683.9 hPa Calm     93% 0 mm WeatherDisplay:10.37 W/m2 FEW
08:54 -17.6 °C -18.1 °C 33683.9 hPa Calm     93% 0 mm WeatherDisplay:10.37 W/m2 FEW
08:59 -17.6 °C -18.1 °C 33683.9 hPa SSE 1.6 km/h 5.1 km/h 93% 0 mm WeatherDisplay:10.37 W/m2 FEW
09:03 -17.6 °C -18.1 °C 33683.9 hPa SSE 0.8 km/h 9 km/h 93% 0 mm WeatherDisplay:10.37 W/m2 FEW
09:08 -17.6 °C -18.1 °C 33683.9 hPa Calm     93% 0 mm WeatherDisplay:10.37 W/m2 FEW
09:13 -17.6 °C -18.1 °C 33683.9 hPa SSE 1.8 km/h 9 km/h 93% 0 mm WeatherDisplay:10.37 W/m2 FEW
09:18 -17.6 °C -18.1 °C 33673.8 hPa Calm     93% 0 mm WeatherDisplay:10.37 W/m2 FEW
09:23 -17.5 °C -18.1 °C 33673.8 hPa Calm     93% 0 mm WeatherDisplay:10.37 W/m2 FEW
09:28 -17.5 °C -18.1 °C 33673.8 hPa Calm     93% 0 mm WeatherDisplay:10.37 W/m2 FEW
09:33 -17.5 °C -18.1 °C 33673.8 hPa Calm     93% 0 mm WeatherDisplay:10.37 W/m2 FEW
09:38 -17.5 °C -18.1 °C 33673.8 hPa Calm     93% 0 mm WeatherDisplay:10.37 W/m2 FEW
09:39 -17.5 °C -18.1 °C 33673.8 hPa Calm     93% 0 mm WeatherDisplay:10.37 W/m2 FEW
09:44 -17.5 °C -18.1 °C 33673.8 hPa Calm     93% 0 mm WeatherDisplay:10.37 W/m2 FEW
09:45 -17.5 °C -18.1 °C 33673.8 hPa Calm     93% 0 mm WeatherDisplay:10.37 W/m2 FEW
09:50 -17.5 °C -18.1 °C 33673.8 hPa Calm   2.6 km/h 93% 0 mm WeatherDisplay:10.37 W/m2 FEW
09:56 -17.5 °C -18.1 °C 33673.8 hPa Calm     93% 0 mm WeatherDisplay:10.37 W/m2 FEW
10:01 -17.5 °C -18.1 °C 33673.8 hPa Calm     93% 0 mm WeatherDisplay:10.37 W/m2 FEW
10:06 -17.5 °C -18.1 °C 33673.8 hPa Calm     93% 0 mm WeatherDisplay:10.37 W/m2 FEW
10:11 -17.5 °C -18.1 °C 33660.2 hPa SSE 4.2 km/h 9 km/h 93% 0 mm WeatherDisplay:10.37 W/m2 FEW
10:16 -17.4 °C -18 °C 33673.8 hPa Calm     93% 0 mm WeatherDisplay:10.37 W/m2 FEW
10:22 -17.4 °C -18 °C 33673.8 hPa Calm     93% 0 mm WeatherDisplay:10.37 W/m2 FEW
10:27 -17.4 °C -18 °C 33673.8 hPa SSE 0.3 km/h 3.1 km/h 93% 0 mm WeatherDisplay:10.37 W/m2 FEW
10:32 -17.4 °C -18 °C 33673.8 hPa Calm     93% 0 mm WeatherDisplay:10.37 W/m2 FEW
10:37 -17.4 °C -18 °C 33673.8 hPa Calm     93% 0 mm WeatherDisplay:10.37 W/m2 FEW
10:42 -17.4 °C -18 °C 33673.8 hPa Calm     93% 0 mm WeatherDisplay:10.37 W/m2 FEW
10:47 -17.4 °C -18 °C 33673.8 hPa Calm     93% 0 mm WeatherDisplay:10.37 W/m2 FEW
10:52 -17.4 °C -18 °C 33673.8 hPa SSE 2.1 km/h 5.1 km/h 93% 0 mm WeatherDisplay:10.37 W/m2 FEW
10:54 -17.4 °C -18 °C 33673.8 hPa Calm   3.1 km/h 93% 0 mm WeatherDisplay:10.37 W/m2 FEW
10:59 -17.4 °C -18 °C 33673.8 hPa Calm     93% 0 mm WeatherDisplay:10.37 W/m2 FEW
11:05 -17.4 °C -18 °C 33673.8 hPa Calm   3.1 km/h 93% 0 mm WeatherDisplay:10.37 W/m2 FEW
11:10 -17.4 °C -18 °C 33673.8 hPa Calm     93% 0 mm WeatherDisplay:10.37 W/m2 FEW
11:15 -17.4 °C -18 °C 33660.2 hPa SSE 2.3 km/h 6 km/h 93% 0 mm WeatherDisplay:10.37 W/m2 FEW
11:18 -17.4 °C -18 °C 33660.2 hPa SSE 2.9 km/h 9 km/h 93% 0 mm WeatherDisplay:10.37 W/m2 FEW
11:21 -17.4 °C -18 °C 33660.2 hPa Calm     93% 0 mm WeatherDisplay:10.37 W/m2 FEW
11:26 -17.4 °C -17.9 °C 33660.2 hPa Calm   6 km/h 93% 0 mm WeatherDisplay:10.37 W/m2 FEW
11:29 -17.4 °C -17.9 °C 33660.2 hPa Calm     93% 0 mm WeatherDisplay:10.37 W/m2 FEW
11:34 -17.4 °C -18 °C 33660.2 hPa SSE 1.8 km/h 6 km/h 93% 0 mm WeatherDisplay:10.37 W/m2 FEW
11:39 -17.4 °C -17.9 °C 33660.2 hPa SSE 0.5 km/h 9 km/h 93% 0 mm WeatherDisplay:10.37 W/m2 FEW
11:44 -17.4 °C -17.9 °C 33650.1 hPa Calm     93% 0 mm WeatherDisplay:10.37 W/m2 FEW
11:49 -17.4 °C -17.9 °C 33650.1 hPa Calm     93% 0 mm WeatherDisplay:10.37 W/m2 FEW
11:54 -17.4 °C -17.9 °C 33650.1 hPa Calm     93% 0 mm WeatherDisplay:10.37 W/m2 FEW
11:59 -17.4 °C -17.9 °C 33650.1 hPa SE 2.6 km/h 9 km/h 93% 0 mm WeatherDisplay:10.37 W/m2 FEW
12:00 -17.4 °C -17.9 °C 33650.1 hPa Calm   6 km/h 93% 0 mm WeatherDisplay:10.37 W/m2 FEW
12:06 -17.4 °C -17.9 °C 33650.1 hPa SE 2.1 km/h 9 km/h 93% 0 mm WeatherDisplay:10.37 W/m2 FEW
12:11 -17.4 °C -17.9 °C 33650.1 hPa Calm     93% 0 mm WeatherDisplay:10.37 W/m2 FEW
12:16 -17.4 °C -17.9 °C 33650.1 hPa Calm     93% 0 mm WeatherDisplay:10.37 W/m2 FEW
12:21 -17.4 °C -17.9 °C 33650.1 hPa Calm     93% 0 mm WeatherDisplay:10.37 W/m2 FEW
12:26 -17.4 °C -17.9 °C 33650.1 hPa Calm     93% 0 mm WeatherDisplay:10.37 W/m2 FEW
12:31 -17.4 °C -17.9 °C 33650.1 hPa Calm     93% 0 mm WeatherDisplay:10.37 W/m2 FEW
12:36 -17.4 °C -17.9 °C 33650.1 hPa Calm     93% 0 mm WeatherDisplay:10.37 W/m2 FEW
12:41 -17.4 °C -17.9 °C 33639.9 hPa Calm     93% 0 mm WeatherDisplay:10.37 W/m2 FEW
12:42 -17.4 °C -17.9 °C 33639.9 hPa Calm     93% 0 mm WeatherDisplay:10.37 W/m2 FEW
12:47 -17.4 °C -17.9 °C 33639.9 hPa Calm     93% 0 mm WeatherDisplay:10.37 W/m2 FEW
12:52 -17.4 °C -17.9 °C 33639.9 hPa Calm     93% 0 mm WeatherDisplay:10.37 W/m2 FEW
12:53 -17.4 °C -17.9 °C 33639.9 hPa Calm     93% 0 mm WeatherDisplay:10.37 W/m2 FEW
12:59 -17.4 °C -17.9 °C 33650.1 hPa Calm     93% 0 mm WeatherDisplay:10.37 W/m2 FEW
13:04 -17.4 °C -17.9 °C 33639.9 hPa Calm     93% 0 mm WeatherDisplay:10.37 W/m2 FEW
13:09 -17.4 °C -17.9 °C 33639.9 hPa Calm     93% 0 mm WeatherDisplay:10.37 W/m2 FEW
13:14 -17.4 °C -17.9 °C 33626.4 hPa SE 2.9 km/h 5.1 km/h 93% 0 mm WeatherDisplay:10.37 W/m2 FEW
13:19 -17.4 °C -17.9 °C 33626.4 hPa Calm   3.1 km/h 93% 0 mm WeatherDisplay:10.37 W/m2 FEW
13:20 -17.4 °C -17.9 °C 33626.4 hPa Calm     93% 0 mm WeatherDisplay:10.37 W/m2 FEW
13:25 -17.4 °C -17.9 °C 33626.4 hPa Calm     93% 0 mm WeatherDisplay:10.37 W/m2 FEW
13:30 -17.4 °C -17.9 °C 33626.4 hPa Calm     93% 0 mm WeatherDisplay:10.37 W/m2 FEW
13:32 -17.4 °C -17.9 °C 33626.4 hPa Calm   3.1 km/h 93% 0 mm WeatherDisplay:10.37 W/m2 FEW
13:37 -17.4 °C -17.9 °C 33626.4 hPa Calm     93% 0 mm WeatherDisplay:10.37 W/m2 FEW
13:42 -17.3 °C -17.9 °C 33616.2 hPa Calm     93% 0 mm WeatherDisplay:10.37 W/m2 FEW
13:43 -17.3 °C -17.9 °C 33616.2 hPa SE 2.9 km/h 5.1 km/h 93% 0 mm WeatherDisplay:10.37 W/m2 FEW
13:49 -17.3 °C -17.9 °C 33626.4 hPa Calm     93% 0 mm WeatherDisplay:10.37 W/m2 FEW
13:54 -17.3 °C -17.9 °C 33616.2 hPa Calm     93% 0 mm WeatherDisplay:10.37 W/m2 FEW
13:59 -17.3 °C -17.9 °C 33616.2 hPa Calm     93% 0 mm WeatherDisplay:10.37 W/m2 FEW
14:02 -17.3 °C -17.9 °C 33616.2 hPa SE 0.8 km/h 6 km/h 93% 0 mm WeatherDisplay:10.37 W/m2 FEW
14:07 -17.3 °C -17.9 °C 33616.2 hPa SE 2.1 km/h 2.6 km/h 93% 0 mm WeatherDisplay:10.37 W/m2 FEW
14:12 -17.3 °C -17.9 °C 33616.2 hPa Calm     93% 0 mm WeatherDisplay:10.37 W/m2 FEW
14:13 -17.3 °C -17.9 °C 33616.2 hPa Calm     93% 0 mm WeatherDisplay:10.37 W/m2 FEW
14:19 -17.3 °C -17.9 °C 33616.2 hPa Calm     93% 0 mm WeatherDisplay:10.37 W/m2 FEW
14:24 -17.3 °C -17.9 °C 33616.2 hPa Calm     93% 0 mm WeatherDisplay:10.37 W/m2 FEW
14:29 -17.3 °C -17.9 °C 33602.7 hPa Calm     93% 0 mm WeatherDisplay:10.37 W/m2 FEW
14:30 -17.3 °C -17.9 °C 33602.7 hPa Calm     93% 0 mm WeatherDisplay:10.37 W/m2 FEW
14:31 -17.3 °C -17.9 °C 33602.7 hPa Calm   3.1 km/h 93% 0 mm WeatherDisplay:10.37 W/m2 FEW
14:36 -17.3 °C -17.9 °C 33602.7 hPa Calm   6 km/h 93% 0 mm WeatherDisplay:10.37 W/m2 FEW
14:42 -17.3 °C -17.9 °C 33592.5 hPa Calm     93% 0 mm WeatherDisplay:10.37 W/m2 FEW
14:46 -17.3 °C -17.9 °C 33592.5 hPa SE 0.3 km/h 3.1 km/h 93% 0 mm WeatherDisplay:10.37 W/m2 FEW
14:51 -17.3 °C -17.8 °C 33592.5 hPa Calm     93% 0 mm WeatherDisplay:10.37 W/m2 FEW
14:57 -17.3 °C -17.8 °C 33592.5 hPa Calm     93% 0 mm WeatherDisplay:10.37 W/m2 FEW
15:01 -17.3 °C -17.8 °C 33602.7 hPa Calm     93% 0 mm WeatherDisplay:10.37 W/m2 FEW
15:07 -17.3 °C -17.9 °C 33602.7 hPa SE 2.9 km/h 9 km/h 93% 0 mm WeatherDisplay:10.37 W/m2 FEW
15:09 -17.3 °C -17.9 °C 33602.7 hPa Calm     93% 0 mm WeatherDisplay:10.37 W/m2 FEW
15:14 -17.3 °C -17.9 °C 33592.5 hPa Calm     93% 0 mm WeatherDisplay:10.37 W/m2 FEW
15:19 -17.3 °C -17.9 °C 33592.5 hPa SE 4.2 km/h 9 km/h 93% 0 mm WeatherDisplay:10.37 W/m2 FEW
15:25 -17.3 °C -17.9 °C 33592.5 hPa SE 0.5 km/h 6 km/h 93% 0 mm WeatherDisplay:10.37 W/m2 FEW
15:26 -17.3 °C -17.8 °C 33592.5 hPa Calm     93% 0 mm WeatherDisplay:10.37 W/m2 FEW
15:28 -17.3 °C -17.8 °C 33592.5 hPa Calm     93% 0 mm WeatherDisplay:10.37 W/m2 FEW
15:33 -17.3 °C -17.8 °C 33592.5 hPa Calm     93% 0 mm WeatherDisplay:10.37 W/m2 FEW
15:38 -17.3 °C -17.8 °C 33592.5 hPa Calm     93% 0 mm WeatherDisplay:10.37 W/m2 FEW
15:43 -17.3 °C -17.8 °C 33582.3 hPa SE 3.1 km/h 9 km/h 93% 0 mm WeatherDisplay:10.37 W/m2 FEW
15:48 -17.3 °C -17.8 °C 33582.3 hPa SE 1.6 km/h 6 km/h 93% 0 mm WeatherDisplay:10.37 W/m2 FEW
15:50 -17.3 °C -17.8 °C 33582.3 hPa SE 1.3 km/h 11.9 km/h 93% 0 mm WeatherDisplay:10.37 W/m2 FEW
15:55 -17.3 °C -17.8 °C 33582.3 hPa Calm     93% 0 mm WeatherDisplay:10.37 W/m2 FEW
16:00 -17.3 °C -17.8 °C 33568.8 hPa SE 2.1 km/h 6 km/h 93% 0 mm WeatherDisplay:10.37 W/m2 FEW
16:03 -17.3 °C -17.8 °C 33568.8 hPa Calm   9 km/h 93% 0 mm WeatherDisplay:10.37 W/m2 FEW
16:08 -17.3 °C -17.8 °C 33568.8 hPa SE 0.3 km/h 9 km/h 93% 0 mm WeatherDisplay:10.37 W/m2 FEW
16:12 -17.3 °C -17.8 °C 33568.8 hPa SE 1.8 km/h 6 km/h 93% 0 mm WeatherDisplay:10.37 W/m2 FEW
16:17 -17.3 °C -17.8 °C 33568.8 hPa Calm   3.1 km/h 93% 0 mm WeatherDisplay:10.37 W/m2 FEW
16:19 -17.3 °C -17.8 °C 33568.8 hPa SE 1 km/h 6 km/h 93% 0 mm WeatherDisplay:10.37 W/m2 FEW
16:24 -17.3 °C -17.8 °C 33568.8 hPa ESE 2.6 km/h 9 km/h 93% 0 mm WeatherDisplay:10.37 W/m2 FEW
16:29 -17.2 °C -17.8 °C 33558.6 hPa ESE 4.3 km/h 17.9 km/h 93% 0 mm WeatherDisplay:10.37 W/m2 FEW
16:34 -17.2 °C -17.8 °C 33558.6 hPa SE 0.5 km/h 2.6 km/h 93% 0 mm WeatherDisplay:10.37 W/m2 FEW
16:39 -17.2 °C -17.8 °C 33558.6 hPa SE 1.8 km/h 10.3 km/h 93% 0 mm WeatherDisplay:10.37 W/m2 FEW
16:44 -17.2 °C -17.7 °C 33558.6 hPa SE 1.3 km/h 11.9 km/h 93% 0 mm WeatherDisplay:10.37 W/m2 FEW
16:49 -17.2 °C -17.7 °C 33545.1 hPa Calm     93% 0 mm WeatherDisplay:10.37 W/m2 FEW
16:54 -17.2 °C -17.7 °C 33545.1 hPa East 3.1 km/h 15 km/h 93% 0 mm WeatherDisplay:10.37 W/m2 FEW
16:59 -17.2 °C -17.7 °C 33545.1 hPa East 8.9 km/h 9 km/h 93% 0 mm WeatherDisplay:10.37 W/m2 FEW
17:04 -17.2 °C -17.7 °C 33534.9 hPa East 1.8 km/h 9 km/h 93% 0 mm WeatherDisplay:10.37 W/m2 FEW
17:06 -17.2 °C -17.7 °C 33534.9 hPa Calm     93% 0 mm WeatherDisplay:10.37 W/m2 FEW
17:11 -17.2 °C -17.7 °C 33534.9 hPa East 2.1 km/h 6 km/h 93% 0 mm WeatherDisplay:10.37 W/m2 FEW
17:16 -17.2 °C -17.7 °C 33524.8 hPa East 2.3 km/h 9 km/h 93% 0 mm WeatherDisplay:10.37 W/m2 FEW
17:21 -17.2 °C -17.7 °C 33534.9 hPa SE 2.9 km/h 9 km/h 93% 0 mm WeatherDisplay:10.37 W/m2 FEW
17:26 -17.2 °C -17.7 °C 33524.8 hPa ESE 5.1 km/h 9 km/h 93% 0 mm WeatherDisplay:10.37 W/m2 FEW
17:31 -17.2 °C -17.7 °C 33524.8 hPa ESE 6.9 km/h 9 km/h 93% 0 mm WeatherDisplay:10.37 W/m2 FEW
17:36 -17.1 °C -17.7 °C 33524.8 hPa ESE 0.5 km/h 9 km/h 93% 0 mm WeatherDisplay:10.37 W/m2 FEW
17:41 -17.1 °C -17.7 °C 33524.8 hPa ESE 1.3 km/h 15 km/h 93% 0 mm WeatherDisplay:10.37 W/m2 FEW
17:46 -17.1 °C -17.7 °C 33524.8 hPa Calm     93% 0 mm WeatherDisplay:10.37 W/m2 FEW
17:51 -17.1 °C -17.7 °C 33524.8 hPa Calm   15 km/h 93% 0 mm WeatherDisplay:10.37 W/m2 FEW
17:53 -17.1 °C -17.7 °C 33524.8 hPa ESE 2.3 km/h 9 km/h 93% 0 mm WeatherDisplay:10.37 W/m2 FEW
17:58 -17.1 °C -17.7 °C 33524.8 hPa Calm   9 km/h 93% 0 mm WeatherDisplay:10.37 W/m2 FEW
18:03 -17.1 °C -17.7 °C 33511.2 hPa SSE 6.9 km/h 20.9 km/h 93% 0 mm WeatherDisplay:10.37 W/m2 FEW
18:08 -17.1 °C -17.7 °C 33511.2 hPa ESE 3.7 km/h 9 km/h 93% 0 mm WeatherDisplay:10.37 W/m2 FEW
18:09 -17.1 °C -17.7 °C 33511.2 hPa ESE 2.9 km/h 9 km/h 93% 0 mm WeatherDisplay:10.37 W/m2 FEW
18:14 -17.1 °C -17.6 °C 33511.2 hPa ESE 2.1 km/h 5.1 km/h 93% 0 mm WeatherDisplay:10.37 W/m2 FEW
18:19 -17.1 °C -17.6 °C 33511.2 hPa ESE 2.3 km/h 9 km/h 93% 0 mm WeatherDisplay:10.37 W/m2 FEW
18:24 -17.1 °C -17.6 °C 33511.2 hPa East 10.6 km/h 20.9 km/h 93% 7.62 mm WeatherDisplay:10.37 W/m2 RA
18:28 -17.1 °C -17.6 °C 33511.2 hPa East 4.7 km/h 9 km/h 93% 7.62 mm WeatherDisplay:10.37 W/m2 RA
18:34 -17 °C -17.6 °C 33511.2 hPa ESE 8.5 km/h 26.9 km/h 93% 7.62 mm WeatherDisplay:10.37 W/m2 FEW
18:35 -17.1 °C -17.6 °C 33511.2 hPa ESE 2.3 km/h 9 km/h 93% 7.62 mm WeatherDisplay:10.37 W/m2 FEW
18:41 -17.1 °C -17.6 °C 33511.2 hPa ESE 3.7 km/h 9 km/h 93% 7.62 mm WeatherDisplay:10.37 W/m2 FEW
18:45 -17.1 °C -17.6 °C 33511.2 hPa ESE 3.9 km/h 9 km/h 93% 7.62 mm WeatherDisplay:10.37 W/m2 FEW
18:50 -17.1 °C -17.6 °C 33511.2 hPa ESE 1.3 km/h 9 km/h 93% 7.62 mm WeatherDisplay:10.37 W/m2 FEW
18:55 -17.1 °C -17.7 °C 33511.2 hPa ESE 0.3 km/h 3.1 km/h 93% 12.7 mm WeatherDisplay:10.37 W/m2 RA
19:00 -17.2 °C -17.7 °C 33511.2 hPa SSE 0.8 km/h 17.9 km/h 93% 12.7 mm WeatherDisplay:10.37 W/m2 RA
19:05 -17.2 °C -17.8 °C 33501.1 hPa Calm   6 km/h 93% 20.32 mm WeatherDisplay:10.37 W/m2 RA
19:06 -17.3 °C -17.8 °C 33501.1 hPa Calm     93% 20.32 mm WeatherDisplay:10.37 W/m2 RA
19:11 -17.3 °C -17.8 °C 33501.1 hPa SE 0.3 km/h 5.1 km/h 94% 25.4 mm WeatherDisplay:10.37 W/m2 RA
19:16 -17.3 °C -17.9 °C 33501.1 hPa Calm     93% 33.02 mm WeatherDisplay:10.37 W/m2 RA
19:21 -17.4 °C -17.9 °C 33501.1 hPa Calm     93% 38.1 mm WeatherDisplay:10.37 W/m2 RA
19:23 -17.4 °C -17.9 °C 33501.1 hPa Calm     93% 33.02 mm WeatherDisplay:10.37 W/m2 RA
19:28 -17.4 °C -17.9 °C 33501.1 hPa Calm     93% 33.02 mm WeatherDisplay:10.37 W/m2 RA
19:33 -17.4 °C -17.9 °C 33490.9 hPa Calm     93% 33.02 mm WeatherDisplay:10.37 W/m2 FEW
19:38 -17.4 °C -17.9 °C 33490.9 hPa Calm     93% 33.02 mm WeatherDisplay:10.37 W/m2 FEW
19:43 -17.4 °C -17.9 °C 33490.9 hPa Calm     93% 38.1 mm WeatherDisplay:10.37 W/m2 RA
19:48 -17.4 °C -17.9 °C 33490.9 hPa SE 2.3 km/h 9 km/h 93% 38.1 mm WeatherDisplay:10.37 W/m2 RA
19:53 -17.4 °C -17.9 °C 33477.4 hPa SE 4.2 km/h 9 km/h 93% 33.02 mm WeatherDisplay:10.37 W/m2 FEW
19:58 -17.4 °C -17.9 °C 33477.4 hPa ESE 0.8 km/h 6 km/h 93% 25.4 mm WeatherDisplay:10.37 W/m2 FEW
20:02 -17.4 °C -18 °C 33477.4 hPa Calm     93% 25.4 mm WeatherDisplay:10.37 W/m2 FEW
20:07 -17.4 °C -18 °C 33477.4 hPa Calm   3.1 km/h 93% 20.32 mm WeatherDisplay:10.37 W/m2 FEW
20:12 -17.4 °C -18 °C 33477.4 hPa Calm   9 km/h 93% 12.7 mm WeatherDisplay:10.37 W/m2 FEW
20:17 -17.4 °C -18 °C 33477.4 hPa East 1 km/h   93% 12.7 mm WeatherDisplay:10.37 W/m2 FEW
20:19 -17.4 °C -18 °C 33467.2 hPa ESE 3.1 km/h 9 km/h 93% 12.7 mm WeatherDisplay:10.37 W/m2 FEW
20:25 -17.4 °C -17.9 °C 33467.2 hPa Calm     93% 7.62 mm WeatherDisplay:10.37 W/m2 FEW
20:30 -17.4 °C -18 °C 33467.2 hPa Calm     93% 7.62 mm WeatherDisplay:10.37 W/m2 FEW
20:35 -17.4 °C -17.9 °C 33467.2 hPa Calm     93% 7.62 mm WeatherDisplay:10.37 W/m2 FEW
20:41 -17.4 °C -17.9 °C 33467.2 hPa Calm   9 km/h 93% 7.62 mm WeatherDisplay:10.37 W/m2 FEW
20:46 -17.4 °C -17.9 °C 33467.2 hPa ESE 0.8 km/h 9 km/h 93% 0 mm WeatherDisplay:10.37 W/m2 FEW
20:51 -17.4 °C -17.9 °C 33467.2 hPa ESE 0.5 km/h 3.1 km/h 93% 0 mm WeatherDisplay:10.37 W/m2 FEW
20:56 -17.4 °C -17.9 °C 33467.2 hPa Calm     93% 0 mm WeatherDisplay:10.37 W/m2 FEW
21:01 -17.4 °C -17.9 °C 33467.2 hPa Calm     93% 0 mm WeatherDisplay:10.37 W/m2 FEW
21:05 -17.4 °C -17.9 °C 33467.2 hPa Calm     93% 0 mm WeatherDisplay:10.37 W/m2 FEW
21:10 -17.4 °C -17.9 °C 33477.4 hPa Calm     93% 0 mm WeatherDisplay:10.37 W/m2 FEW
21:13 -17.4 °C -17.9 °C 33467.2 hPa Calm     93% 0 mm WeatherDisplay:10.37 W/m2 FEW
21:18 -17.4 °C -17.9 °C 33467.2 hPa Calm     93% 0 mm WeatherDisplay:10.37 W/m2 FEW
21:20 -17.4 °C -17.9 °C 33467.2 hPa Calm     93% 0 mm WeatherDisplay:10.37 W/m2 FEW
21:25 -17.4 °C -17.9 °C 33467.2 hPa ESE 1.8 km/h 9 km/h 93% 0 mm WeatherDisplay:10.37 W/m2 FEW
21:29 -17.3 °C -17.9 °C 33477.4 hPa Calm     93% 0 mm WeatherDisplay:10.37 W/m2 FEW
21:32 -17.3 °C -17.9 °C 33477.4 hPa Calm   3.1 km/h 93% 0 mm WeatherDisplay:10.37 W/m2 FEW
21:38 -17.3 °C -17.9 °C 33477.4 hPa Calm     93% 0 mm WeatherDisplay:10.37 W/m2 FEW
21:39 -17.3 °C -17.9 °C 33477.4 hPa Calm     93% 0 mm WeatherDisplay:10.37 W/m2 FEW
21:45 -17.3 °C -17.9 °C 33477.4 hPa Calm     93% 0 mm WeatherDisplay:10.37 W/m2 FEW
21:50 -17.3 °C -17.9 °C 33477.4 hPa ESE 0.5 km/h 3.1 km/h 93% 0 mm WeatherDisplay:10.37 W/m2 FEW
21:51 -17.3 °C -17.9 °C 33477.4 hPa Calm     93% 0 mm WeatherDisplay:10.37 W/m2 FEW
21:56 -17.4 °C -17.9 °C 33477.4 hPa Calm     93% 0 mm WeatherDisplay:10.37 W/m2 FEW
22:01 -17.4 °C -17.9 °C 33477.4 hPa Calm     93% 0 mm WeatherDisplay:10.37 W/m2 FEW
22:06 -17.4 °C -17.9 °C 33477.4 hPa Calm     93% 0 mm WeatherDisplay:10.37 W/m2 FEW
22:10 -17.3 °C -17.9 °C 33477.4 hPa Calm     93% 0 mm WeatherDisplay:10.37 W/m2 FEW
22:15 -17.3 °C -17.9 °C 33477.4 hPa Calm     93% 0 mm WeatherDisplay:10.37 W/m2 FEW
22:18 -17.3 °C -17.9 °C 33477.4 hPa Calm     93% 0 mm WeatherDisplay:10.37 W/m2 FEW
22:23 -17.3 °C -17.9 °C 33477.4 hPa Calm     93% 0 mm WeatherDisplay:10.37 W/m2 FEW
22:25 -17.3 °C -17.9 °C 33477.4 hPa Calm     93% 0 mm WeatherDisplay:10.37 W/m2 FEW
22:28 -17.3 °C -17.9 °C 33477.4 hPa Calm     93% 0 mm WeatherDisplay:10.37 W/m2 FEW
22:33 -17.3 °C -17.9 °C 33477.4 hPa Calm     93% 0 mm WeatherDisplay:10.37 W/m2 FEW
22:39 -17.3 °C -17.9 °C 33477.4 hPa Calm     93% 0 mm WeatherDisplay:10.37 W/m2 FEW
22:44 -17.3 °C -17.9 °C 33477.4 hPa Calm     93% 0 mm WeatherDisplay:10.37 W/m2 FEW
22:46 -17.3 °C -17.9 °C 33477.4 hPa Calm     93% 0 mm WeatherDisplay:10.37 W/m2 FEW
22:51 -17.3 °C -17.9 °C 33477.4 hPa Calm     93% 0 mm WeatherDisplay:10.37 W/m2 FEW
22:56 -17.3 °C -17.9 °C 33477.4 hPa Calm     93% 7.62 mm WeatherDisplay:10.37 W/m2 RA
23:02 -17.3 °C -17.9 °C 33477.4 hPa Calm     93% 7.62 mm WeatherDisplay:10.37 W/m2 RA
23:07 -17.3 °C -17.9 °C 33477.4 hPa Calm     93% 7.62 mm WeatherDisplay:10.37 W/m2 FEW
23:12 -17.3 °C -17.9 °C 33477.4 hPa Calm     93% 7.62 mm WeatherDisplay:10.37 W/m2 FEW
23:17 -17.3 °C -17.9 °C 33477.4 hPa Calm     93% 7.62 mm WeatherDisplay:10.37 W/m2 FEW
23:19 -17.3 °C -17.9 °C 33477.4 hPa Calm     93% 7.62 mm WeatherDisplay:10.37 W/m2 FEW
23:25 -17.3 °C -17.9 °C 33477.4 hPa Calm     93% 7.62 mm WeatherDisplay:10.37 W/m2 FEW
23:30 -17.4 °C -17.9 °C 33477.4 hPa Calm     93% 7.62 mm WeatherDisplay:10.37 W/m2 FEW
23:35 -17.4 °C -17.9 °C 33477.4 hPa Calm     93% 7.62 mm WeatherDisplay:10.37 W/m2 FEW
23:40 -17.4 °C -17.9 °C 33477.4 hPa ESE 0.3 km/h 3.1 km/h 93% 7.62 mm WeatherDisplay:10.37 W/m2 FEW
23:45 -17.3 °C -17.9 °C 33477.4 hPa Calm     93% 7.62 mm WeatherDisplay:10.37 W/m2 FEW
23:50 -17.3 °C -17.9 °C 33477.4 hPa Calm     93% 7.62 mm WeatherDisplay:10.37 W/m2 FEW
23:55 -17.3 °C -17.8 °C 33477.4 hPa Calm     94% 0 mm WeatherDisplay:10.37 W/m2 FEW
Tuulensuunkaari, Veikkola, Suomi
Compliments of Weather Underground - 2.75 mb